sensor_id;sensor_type;location;lat;lon;timestamp;P1;durP1;ratioP1;P2;durP2;ratioP2
74799;SDS011;63326;45.088;7.658;2024-03-29T00:01:32;17.33;;;8.30;;
74799;SDS011;63326;45.088;7.658;2024-03-29T00:03:59;13.50;;;7.80;;
74799;SDS011;63326;45.088;7.658;2024-03-29T00:06:25;15.95;;;7.60;;
74799;SDS011;63326;45.088;7.658;2024-03-29T00:08:51;15.13;;;8.85;;
74799;SDS011;63326;45.088;7.658;2024-03-29T00:11:18;13.63;;;7.45;;
74799;SDS011;63326;45.088;7.658;2024-03-29T00:13:50;13.88;;;8.43;;
74799;SDS011;63326;45.088;7.658;2024-03-29T00:16:16;19.45;;;9.45;;
74799;SDS011;63326;45.088;7.658;2024-03-29T00:18:41;14.52;;;6.85;;
74799;SDS011;63326;45.088;7.658;2024-03-29T00:21:08;19.25;;;8.27;;
74799;SDS011;63326;45.088;7.658;2024-03-29T00:23:34;18.35;;;9.32;;
74799;SDS011;63326;45.088;7.658;2024-03-29T00:26:00;13.95;;;8.35;;
74799;SDS011;63326;45.088;7.658;2024-03-29T00:28:26;16.63;;;8.57;;
74799;SDS011;63326;45.088;7.658;2024-03-29T00:30:53;14.98;;;9.57;;
74799;SDS011;63326;45.088;7.658;2024-03-29T00:33:20;14.95;;;8.85;;
74799;SDS011;63326;45.088;7.658;2024-03-29T00:35:46;17.90;;;7.97;;
74799;SDS011;63326;45.088;7.658;2024-03-29T00:38:12;17.38;;;10.10;;
74799;SDS011;63326;45.088;7.658;2024-03-29T00:40:39;14.82;;;8.40;;
74799;SDS011;63326;45.088;7.658;2024-03-29T00:43:05;16.80;;;9.40;;
74799;SDS011;63326;45.088;7.658;2024-03-29T00:45:32;16.02;;;8.02;;
74799;SDS011;63326;45.088;7.658;2024-03-29T00:47:59;15.35;;;9.00;;
74799;SDS011;63326;45.088;7.658;2024-03-29T00:50:25;14.00;;;7.70;;
74799;SDS011;63326;45.088;7.658;2024-03-29T00:52:51;20.55;;;11.63;;
74799;SDS011;63326;45.088;7.658;2024-03-29T00:55:17;18.00;;;8.85;;
74799;SDS011;63326;45.088;7.658;2024-03-29T00:57:43;16.08;;;8.02;;
74799;SDS011;63326;45.088;7.658;2024-03-29T01:00:09;17.95;;;8.73;;
74799;SDS011;63326;45.088;7.658;2024-03-29T01:02:36;13.07;;;7.25;;
74799;SDS011;63326;45.088;7.658;2024-03-29T01:05:02;14.85;;;8.02;;
74799;SDS011;63326;45.088;7.658;2024-03-29T01:07:30;16.95;;;9.07;;
74799;SDS011;63326;45.088;7.658;2024-03-29T01:09:56;16.27;;;7.55;;
74799;SDS011;63326;45.088;7.658;2024-03-29T01:12:22;13.00;;;7.32;;
74799;SDS011;63326;45.088;7.658;2024-03-29T01:14:48;13.10;;;7.70;;
74799;SDS011;63326;45.088;7.658;2024-03-29T01:17:15;15.13;;;8.48;;
74799;SDS011;63326;45.088;7.658;2024-03-29T01:19:43;12.25;;;7.97;;
74799;SDS011;63326;45.088;7.658;2024-03-29T01:22:09;16.13;;;8.65;;
74799;SDS011;63326;45.088;7.658;2024-03-29T01:24:35;14.95;;;9.10;;
74799;SDS011;63326;45.088;7.658;2024-03-29T01:27:01;15.18;;;8.80;;
74799;SDS011;63326;45.088;7.658;2024-03-29T01:29:27;15.65;;;7.35;;
74799;SDS011;63326;45.088;7.658;2024-03-29T01:31:53;15.07;;;7.97;;
74799;SDS011;63326;45.088;7.658;2024-03-29T01:34:22;13.18;;;7.40;;
74799;SDS011;63326;45.088;7.658;2024-03-29T01:36:48;19.58;;;8.48;;
74799;SDS011;63326;45.088;7.658;2024-03-29T01:39:14;15.23;;;7.70;;
74799;SDS011;63326;45.088;7.658;2024-03-29T01:41:41;12.73;;;7.38;;
74799;SDS011;63326;45.088;7.658;2024-03-29T01:44:06;17.40;;;8.10;;
74799;SDS011;63326;45.088;7.658;2024-03-29T01:46:34;12.40;;;7.25;;
74799;SDS011;63326;45.088;7.658;2024-03-29T01:49:02;15.93;;;7.78;;
74799;SDS011;63326;45.088;7.658;2024-03-29T01:51:30;12.00;;;7.32;;
74799;SDS011;63326;45.088;7.658;2024-03-29T01:53:58;11.40;;;7.35;;
74799;SDS011;63326;45.088;7.658;2024-03-29T01:56:24;13.65;;;7.32;;
74799;SDS011;63326;45.088;7.658;2024-03-29T01:58:51;13.70;;;7.55;;
74799;SDS011;63326;45.088;7.658;2024-03-29T02:01:21;12.35;;;7.45;;
74799;SDS011;63326;45.088;7.658;2024-03-29T02:03:48;15.30;;;7.97;;
74799;SDS011;63326;45.088;7.658;2024-03-29T02:06:18;10.20;;;6.35;;
74799;SDS011;63326;45.088;7.658;2024-03-29T02:08:46;12.57;;;7.57;;
74799;SDS011;63326;45.088;7.658;2024-03-29T02:11:17;12.48;;;7.03;;
74799;SDS011;63326;45.088;7.658;2024-03-29T02:13:43;11.32;;;6.82;;
74799;SDS011;63326;45.088;7.658;2024-03-29T02:16:25;19.83;;;8.05;;
74799;SDS011;63326;45.088;7.658;2024-03-29T02:18:51;13.98;;;7.65;;
74799;SDS011;63326;45.088;7.658;2024-03-29T02:21:17;11.43;;;6.72;;
74799;SDS011;63326;45.088;7.658;2024-03-29T02:23:44;12.27;;;7.40;;
74799;SDS011;63326;45.088;7.658;2024-03-29T02:26:12;12.93;;;7.15;;
74799;SDS011;63326;45.088;7.658;2024-03-29T02:28:39;13.10;;;7.18;;
74799;SDS011;63326;45.088;7.658;2024-03-29T02:31:05;15.80;;;7.40;;
74799;SDS011;63326;45.088;7.658;2024-03-29T02:33:31;16.05;;;7.55;;
74799;SDS011;63326;45.088;7.658;2024-03-29T02:35:57;16.08;;;8.15;;
74799;SDS011;63326;45.088;7.658;2024-03-29T02:38:23;11.32;;;6.00;;
74799;SDS011;63326;45.088;7.658;2024-03-29T02:40:49;12.73;;;7.15;;
74799;SDS011;63326;45.088;7.658;2024-03-29T02:43:15;13.27;;;7.43;;
74799;SDS011;63326;45.088;7.658;2024-03-29T02:45:44;17.02;;;8.20;;
74799;SDS011;63326;45.088;7.658;2024-03-29T02:48:10;12.75;;;6.47;;
74799;SDS011;63326;45.088;7.658;2024-03-29T02:50:36;12.15;;;6.93;;
74799;SDS011;63326;45.088;7.658;2024-03-29T02:53:02;15.63;;;8.68;;
74799;SDS011;63326;45.088;7.658;2024-03-29T02:55:28;15.73;;;8.85;;
74799;SDS011;63326;45.088;7.658;2024-03-29T02:57:54;15.23;;;8.13;;
74799;SDS011;63326;45.088;7.658;2024-03-29T03:00:19;14.68;;;9.73;;
74799;SDS011;63326;45.088;7.658;2024-03-29T03:02:45;14.77;;;8.70;;
74799;SDS011;63326;45.088;7.658;2024-03-29T03:05:11;14.30;;;8.45;;
74799;SDS011;63326;45.088;7.658;2024-03-29T03:07:38;13.55;;;7.85;;
74799;SDS011;63326;45.088;7.658;2024-03-29T03:10:23;14.77;;;7.80;;
74799;SDS011;63326;45.088;7.658;2024-03-29T03:13:07;14.15;;;7.47;;
74799;SDS011;63326;45.088;7.658;2024-03-29T03:15:33;14.27;;;8.40;;
74799;SDS011;63326;45.088;7.658;2024-03-29T03:17:59;15.48;;;7.32;;
74799;SDS011;63326;45.088;7.658;2024-03-29T03:20:27;14.00;;;7.07;;
74799;SDS011;63326;45.088;7.658;2024-03-29T03:22:56;17.80;;;9.07;;
74799;SDS011;63326;45.088;7.658;2024-03-29T03:25:24;15.88;;;7.97;;
74799;SDS011;63326;45.088;7.658;2024-03-29T03:27:53;12.25;;;7.00;;
74799;SDS011;63326;45.088;7.658;2024-03-29T03:30:19;15.65;;;8.38;;
74799;SDS011;63326;45.088;7.658;2024-03-29T03:32:44;15.30;;;7.03;;
74799;SDS011;63326;45.088;7.658;2024-03-29T03:35:12;13.18;;;7.00;;
74799;SDS011;63326;45.088;7.658;2024-03-29T03:37:38;14.48;;;8.23;;
74799;SDS011;63326;45.088;7.658;2024-03-29T03:40:04;13.95;;;7.13;;
74799;SDS011;63326;45.088;7.658;2024-03-29T03:42:31;15.30;;;8.98;;
74799;SDS011;63326;45.088;7.658;2024-03-29T03:44:57;18.65;;;9.38;;
74799;SDS011;63326;45.088;7.658;2024-03-29T03:47:23;12.07;;;6.63;;
74799;SDS011;63326;45.088;7.658;2024-03-29T03:49:49;13.27;;;7.45;;
74799;SDS011;63326;45.088;7.658;2024-03-29T03:52:15;14.50;;;7.80;;
74799;SDS011;63326;45.088;7.658;2024-03-29T03:54:41;17.95;;;9.23;;
74799;SDS011;63326;45.088;7.658;2024-03-29T03:57:07;17.45;;;7.95;;
74799;SDS011;63326;45.088;7.658;2024-03-29T03:59:32;14.02;;;7.78;;
74799;SDS011;63326;45.088;7.658;2024-03-29T04:01:58;16.95;;;8.48;;
74799;SDS011;63326;45.088;7.658;2024-03-29T04:04:24;14.15;;;7.32;;
74799;SDS011;63326;45.088;7.658;2024-03-29T04:06:50;16.20;;;7.90;;
74799;SDS011;63326;45.088;7.658;2024-03-29T04:09:16;12.68;;;7.38;;
74799;SDS011;63326;45.088;7.658;2024-03-29T04:11:44;15.82;;;7.88;;
74799;SDS011;63326;45.088;7.658;2024-03-29T04:14:10;14.82;;;6.97;;
74799;SDS011;63326;45.088;7.658;2024-03-29T04:16:36;14.80;;;6.75;;
74799;SDS011;63326;45.088;7.658;2024-03-29T04:19:02;13.73;;;8.02;;
74799;SDS011;63326;45.088;7.658;2024-03-29T04:21:28;14.32;;;8.73;;
74799;SDS011;63326;45.088;7.658;2024-03-29T04:23:54;15.40;;;8.10;;
74799;SDS011;63326;45.088;7.658;2024-03-29T04:26:21;13.70;;;6.32;;
74799;SDS011;63326;45.088;7.658;2024-03-29T04:28:47;11.60;;;7.63;;
74799;SDS011;63326;45.088;7.658;2024-03-29T04:31:13;15.02;;;8.13;;
74799;SDS011;63326;45.088;7.658;2024-03-29T04:33:39;16.35;;;7.85;;
74799;SDS011;63326;45.088;7.658;2024-03-29T04:36:05;13.98;;;7.18;;
74799;SDS011;63326;45.088;7.658;2024-03-29T04:38:31;14.40;;;7.65;;
74799;SDS011;63326;45.088;7.658;2024-03-29T04:40:58;15.88;;;7.68;;
74799;SDS011;63326;45.088;7.658;2024-03-29T04:43:26;13.30;;;7.03;;
74799;SDS011;63326;45.088;7.658;2024-03-29T04:46:03;15.07;;;6.30;;
74799;SDS011;63326;45.088;7.658;2024-03-29T04:48:39;11.98;;;6.78;;
74799;SDS011;63326;45.088;7.658;2024-03-29T04:51:11;12.63;;;7.15;;
74799;SDS011;63326;45.088;7.658;2024-03-29T04:53:37;15.05;;;7.13;;
74799;SDS011;63326;45.088;7.658;2024-03-29T04:56:07;12.48;;;6.28;;
74799;SDS011;63326;45.088;7.658;2024-03-29T04:58:33;13.32;;;6.45;;
74799;SDS011;63326;45.088;7.658;2024-03-29T05:00:59;10.07;;;5.68;;
74799;SDS011;63326;45.088;7.658;2024-03-29T05:03:26;15.75;;;7.25;;
74799;SDS011;63326;45.088;7.658;2024-03-29T05:05:52;10.32;;;5.70;;
74799;SDS011;63326;45.088;7.658;2024-03-29T05:08:19;12.20;;;6.47;;
74799;SDS011;63326;45.088;7.658;2024-03-29T05:10:47;9.27;;;5.80;;
74799;SDS011;63326;45.088;7.658;2024-03-29T05:13:14;12.55;;;6.85;;
74799;SDS011;63326;45.088;7.658;2024-03-29T05:15:42;15.13;;;7.35;;
74799;SDS011;63326;45.088;7.658;2024-03-29T05:18:09;12.95;;;7.30;;
74799;SDS011;63326;45.088;7.658;2024-03-29T05:20:35;14.23;;;7.57;;
74799;SDS011;63326;45.088;7.658;2024-03-29T05:23:01;17.08;;;6.93;;
74799;SDS011;63326;45.088;7.658;2024-03-29T05:25:27;18.55;;;7.43;;
74799;SDS011;63326;45.088;7.658;2024-03-29T05:27:53;15.45;;;7.22;;
74799;SDS011;63326;45.088;7.658;2024-03-29T05:30:19;12.10;;;7.35;;
74799;SDS011;63326;45.088;7.658;2024-03-29T05:32:46;13.18;;;7.00;;
74799;SDS011;63326;45.088;7.658;2024-03-29T05:35:12;16.67;;;6.88;;
74799;SDS011;63326;45.088;7.658;2024-03-29T05:37:39;14.23;;;7.50;;
74799;SDS011;63326;45.088;7.658;2024-03-29T05:40:06;12.85;;;7.70;;
74799;SDS011;63326;45.088;7.658;2024-03-29T05:42:33;16.63;;;7.25;;
74799;SDS011;63326;45.088;7.658;2024-03-29T05:45:03;10.77;;;5.97;;
74799;SDS011;63326;45.088;7.658;2024-03-29T05:47:32;10.60;;;6.80;;
74799;SDS011;63326;45.088;7.658;2024-03-29T05:49:58;10.73;;;6.30;;
74799;SDS011;63326;45.088;7.658;2024-03-29T05:52:24;12.52;;;6.82;;
74799;SDS011;63326;45.088;7.658;2024-03-29T05:54:49;12.25;;;7.47;;
74799;SDS011;63326;45.088;7.658;2024-03-29T05:57:15;14.38;;;7.38;;
74799;SDS011;63326;45.088;7.658;2024-03-29T05:59:43;15.43;;;9.02;;
74799;SDS011;63326;45.088;7.658;2024-03-29T06:02:09;14.02;;;7.18;;
74799;SDS011;63326;45.088;7.658;2024-03-29T06:04:34;16.10;;;7.43;;
74799;SDS011;63326;45.088;7.658;2024-03-29T06:07:03;12.57;;;6.35;;
74799;SDS011;63326;45.088;7.658;2024-03-29T06:11:59;14.68;;;6.47;;
74799;SDS011;63326;45.088;7.658;2024-03-29T06:14:26;13.52;;;8.52;;
74799;SDS011;63326;45.088;7.658;2024-03-29T06:17:11;17.30;;;7.13;;
74799;SDS011;63326;45.088;7.658;2024-03-29T06:19:53;17.10;;;8.05;;
74799;SDS011;63326;45.088;7.658;2024-03-29T06:22:22;14.00;;;7.47;;
74799;SDS011;63326;45.088;7.658;2024-03-29T06:24:56;15.05;;;7.40;;
74799;SDS011;63326;45.088;7.658;2024-03-29T06:27:25;11.90;;;6.78;;
74799;SDS011;63326;45.088;7.658;2024-03-29T06:29:51;13.98;;;6.53;;
74799;SDS011;63326;45.088;7.658;2024-03-29T06:32:17;13.40;;;7.20;;
74799;SDS011;63326;45.088;7.658;2024-03-29T06:34:44;11.95;;;6.55;;
74799;SDS011;63326;45.088;7.658;2024-03-29T06:37:11;15.30;;;4.32;;
74799;SDS011;63326;45.088;7.658;2024-03-29T06:39:37;9.00;;;4.65;;
74799;SDS011;63326;45.088;7.658;2024-03-29T06:42:03;9.27;;;5.93;;
74799;SDS011;63326;45.088;7.658;2024-03-29T06:44:33;6.22;;;4.25;;
74799;SDS011;63326;45.088;7.658;2024-03-29T06:46:59;8.43;;;4.90;;
74799;SDS011;63326;45.088;7.658;2024-03-29T06:49:25;7.20;;;3.70;;
74799;SDS011;63326;45.088;7.658;2024-03-29T06:51:52;10.23;;;4.97;;
74799;SDS011;63326;45.088;7.658;2024-03-29T06:54:19;11.77;;;5.00;;
74799;SDS011;63326;45.088;7.658;2024-03-29T06:56:52;7.10;;;4.18;;
74799;SDS011;63326;45.088;7.658;2024-03-29T06:59:19;11.70;;;5.07;;
74799;SDS011;63326;45.088;7.658;2024-03-29T07:01:52;10.45;;;4.85;;
74799;SDS011;63326;45.088;7.658;2024-03-29T07:04:21;10.57;;;5.75;;
74799;SDS011;63326;45.088;7.658;2024-03-29T07:06:50;10.73;;;4.93;;
74799;SDS011;63326;45.088;7.658;2024-03-29T07:09:17;10.18;;;5.85;;
74799;SDS011;63326;45.088;7.658;2024-03-29T07:11:48;11.18;;;5.03;;
74799;SDS011;63326;45.088;7.658;2024-03-29T07:14:17;8.88;;;4.68;;
74799;SDS011;63326;45.088;7.658;2024-03-29T07:16:45;8.38;;;5.03;;
74799;SDS011;63326;45.088;7.658;2024-03-29T07:19:12;10.15;;;5.70;;
74799;SDS011;63326;45.088;7.658;2024-03-29T07:21:45;11.50;;;6.18;;
74799;SDS011;63326;45.088;7.658;2024-03-29T07:24:12;10.45;;;5.57;;
74799;SDS011;63326;45.088;7.658;2024-03-29T07:26:38;11.35;;;6.32;;
74799;SDS011;63326;45.088;7.658;2024-03-29T07:29:05;13.90;;;6.72;;
74799;SDS011;63326;45.088;7.658;2024-03-29T07:31:32;11.75;;;6.30;;
74799;SDS011;63326;45.088;7.658;2024-03-29T07:34:00;9.15;;;5.53;;
74799;SDS011;63326;45.088;7.658;2024-03-29T07:36:26;9.10;;;5.03;;
74799;SDS011;63326;45.088;7.658;2024-03-29T07:38:57;10.38;;;4.93;;
74799;SDS011;63326;45.088;7.658;2024-03-29T07:43:54;13.30;;;5.32;;
74799;SDS011;63326;45.088;7.658;2024-03-29T07:46:29;9.10;;;4.65;;
74799;SDS011;63326;45.088;7.658;2024-03-29T07:48:57;6.88;;;3.75;;
74799;SDS011;63326;45.088;7.658;2024-03-29T07:51:23;7.35;;;4.25;;
74799;SDS011;63326;45.088;7.658;2024-03-29T07:53:49;7.97;;;4.78;;
74799;SDS011;63326;45.088;7.658;2024-03-29T07:56:18;6.78;;;3.35;;
74799;SDS011;63326;45.088;7.658;2024-03-29T07:58:49;7.78;;;3.80;;
74799;SDS011;63326;45.088;7.658;2024-03-29T08:01:20;7.75;;;5.13;;
74799;SDS011;63326;45.088;7.658;2024-03-29T08:03:46;7.22;;;4.50;;
74799;SDS011;63326;45.088;7.658;2024-03-29T08:06:16;6.97;;;4.45;;
74799;SDS011;63326;45.088;7.658;2024-03-29T08:08:43;7.25;;;3.67;;
74799;SDS011;63326;45.088;7.658;2024-03-29T08:11:09;8.02;;;3.88;;
74799;SDS011;63326;45.088;7.658;2024-03-29T08:13:35;6.78;;;3.58;;
74799;SDS011;63326;45.088;7.658;2024-03-29T08:16:01;9.13;;;4.32;;
74799;SDS011;63326;45.088;7.658;2024-03-29T08:18:27;7.38;;;4.03;;
74799;SDS011;63326;45.088;7.658;2024-03-29T08:20:55;7.22;;;3.78;;
74799;SDS011;63326;45.088;7.658;2024-03-29T08:23:21;6.63;;;3.30;;
74799;SDS011;63326;45.088;7.658;2024-03-29T08:25:47;7.53;;;4.10;;
74799;SDS011;63326;45.088;7.658;2024-03-29T08:28:14;10.45;;;3.33;;
74799;SDS011;63326;45.088;7.658;2024-03-29T08:30:40;8.13;;;3.67;;
74799;SDS011;63326;45.088;7.658;2024-03-29T08:33:06;7.72;;;3.95;;
74799;SDS011;63326;45.088;7.658;2024-03-29T08:35:32;11.15;;;5.22;;
74799;SDS011;63326;45.088;7.658;2024-03-29T08:37:59;7.70;;;4.43;;
74799;SDS011;63326;45.088;7.658;2024-03-29T08:40:27;8.40;;;5.28;;
74799;SDS011;63326;45.088;7.658;2024-03-29T08:42:55;8.98;;;4.50;;
74799;SDS011;63326;45.088;7.658;2024-03-29T08:45:21;7.97;;;4.55;;
74799;SDS011;63326;45.088;7.658;2024-03-29T08:47:47;9.82;;;4.85;;
74799;SDS011;63326;45.088;7.658;2024-03-29T08:50:14;9.90;;;5.80;;
74799;SDS011;63326;45.088;7.658;2024-03-29T08:52:40;8.95;;;4.38;;
74799;SDS011;63326;45.088;7.658;2024-03-29T08:55:06;8.98;;;5.20;;
74799;SDS011;63326;45.088;7.658;2024-03-29T08:57:33;8.85;;;4.82;;
74799;SDS011;63326;45.088;7.658;2024-03-29T09:00:00;7.05;;;4.30;;
74799;SDS011;63326;45.088;7.658;2024-03-29T09:02:28;8.13;;;4.80;;
74799;SDS011;63326;45.088;7.658;2024-03-29T09:04:54;6.85;;;4.57;;
74799;SDS011;63326;45.088;7.658;2024-03-29T09:07:21;10.10;;;3.90;;
74799;SDS011;63326;45.088;7.658;2024-03-29T09:09:49;6.32;;;3.83;;
74799;SDS011;63326;45.088;7.658;2024-03-29T09:12:16;6.80;;;3.25;;
74799;SDS011;63326;45.088;7.658;2024-03-29T09:14:44;7.25;;;4.18;;
74799;SDS011;63326;45.088;7.658;2024-03-29T09:17:11;7.95;;;3.97;;
74799;SDS011;63326;45.088;7.658;2024-03-29T09:19:39;7.15;;;3.55;;
74799;SDS011;63326;45.088;7.658;2024-03-29T09:22:06;7.60;;;3.35;;
74799;SDS011;63326;45.088;7.658;2024-03-29T09:24:32;6.32;;;3.10;;
74799;SDS011;63326;45.088;7.658;2024-03-29T09:27:00;9.10;;;4.38;;
74799;SDS011;63326;45.088;7.658;2024-03-29T09:29:26;4.88;;;3.13;;
74799;SDS011;63326;45.088;7.658;2024-03-29T09:31:55;9.00;;;3.40;;
74799;SDS011;63326;45.088;7.658;2024-03-29T09:34:21;6.43;;;2.97;;
74799;SDS011;63326;45.088;7.658;2024-03-29T09:36:48;7.30;;;3.42;;
74799;SDS011;63326;45.088;7.658;2024-03-29T09:39:15;9.93;;;4.32;;
74799;SDS011;63326;45.088;7.658;2024-03-29T09:41:41;8.43;;;3.80;;
74799;SDS011;63326;45.088;7.658;2024-03-29T09:44:10;5.75;;;3.83;;
74799;SDS011;63326;45.088;7.658;2024-03-29T09:46:36;6.82;;;3.90;;
74799;SDS011;63326;45.088;7.658;2024-03-29T09:49:06;7.80;;;3.60;;
74799;SDS011;63326;45.088;7.658;2024-03-29T09:51:32;6.68;;;3.10;;
74799;SDS011;63326;45.088;7.658;2024-03-29T09:54:00;7.13;;;3.90;;
74799;SDS011;63326;45.088;7.658;2024-03-29T09:56:30;6.55;;;3.53;;
74799;SDS011;63326;45.088;7.658;2024-03-29T09:58:56;6.85;;;4.10;;
74799;SDS011;63326;45.088;7.658;2024-03-29T10:01:23;7.38;;;3.80;;
74799;SDS011;63326;45.088;7.658;2024-03-29T10:03:49;8.20;;;4.20;;
74799;SDS011;63326;45.088;7.658;2024-03-29T10:06:18;10.38;;;4.43;;
74799;SDS011;63326;45.088;7.658;2024-03-29T10:08:46;10.60;;;5.07;;
74799;SDS011;63326;45.088;7.658;2024-03-29T10:11:14;5.22;;;3.47;;
74799;SDS011;63326;45.088;7.658;2024-03-29T10:13:45;6.30;;;3.08;;
74799;SDS011;63326;45.088;7.658;2024-03-29T10:16:11;8.20;;;4.15;;
74799;SDS011;63326;45.088;7.658;2024-03-29T10:18:40;5.22;;;3.20;;
74799;SDS011;63326;45.088;7.658;2024-03-29T10:21:07;6.10;;;3.45;;
74799;SDS011;63326;45.088;7.658;2024-03-29T10:23:34;7.40;;;3.47;;
74799;SDS011;63326;45.088;7.658;2024-03-29T10:26:01;7.40;;;3.50;;
74799;SDS011;63326;45.088;7.658;2024-03-29T10:28:31;6.65;;;3.58;;
74799;SDS011;63326;45.088;7.658;2024-03-29T10:31:02;7.80;;;3.28;;
74799;SDS011;63326;45.088;7.658;2024-03-29T10:33:32;5.78;;;2.75;;
74799;SDS011;63326;45.088;7.658;2024-03-29T10:35:59;7.85;;;3.50;;
74799;SDS011;63326;45.088;7.658;2024-03-29T10:38:27;4.75;;;2.78;;
74799;SDS011;63326;45.088;7.658;2024-03-29T10:40:53;7.57;;;3.40;;
74799;SDS011;63326;45.088;7.658;2024-03-29T10:43:20;6.55;;;3.42;;
74799;SDS011;63326;45.088;7.658;2024-03-29T10:45:47;5.50;;;3.15;;
74799;SDS011;63326;45.088;7.658;2024-03-29T10:48:15;8.10;;;3.70;;
74799;SDS011;63326;45.088;7.658;2024-03-29T10:50:42;5.75;;;3.45;;
74799;SDS011;63326;45.088;7.658;2024-03-29T10:53:11;6.38;;;3.58;;
74799;SDS011;63326;45.088;7.658;2024-03-29T10:55:39;6.82;;;4.10;;
74799;SDS011;63326;45.088;7.658;2024-03-29T10:58:05;8.18;;;4.55;;
74799;SDS011;63326;45.088;7.658;2024-03-29T11:00:38;5.85;;;3.83;;
74799;SDS011;63326;45.088;7.658;2024-03-29T11:05:53;7.25;;;2.20;;
74799;SDS011;63326;45.088;7.658;2024-03-29T11:08:23;4.50;;;2.30;;
74799;SDS011;63326;45.088;7.658;2024-03-29T11:10:50;4.13;;;2.42;;
74799;SDS011;63326;45.088;7.658;2024-03-29T11:15:54;4.80;;;2.58;;
74799;SDS011;63326;45.088;7.658;2024-03-29T11:18:20;4.82;;;2.33;;
74799;SDS011;63326;45.088;7.658;2024-03-29T11:20:50;3.92;;;2.47;;
74799;SDS011;63326;45.088;7.658;2024-03-29T11:23:18;6.07;;;2.85;;
74799;SDS011;63326;45.088;7.658;2024-03-29T11:25:50;5.20;;;3.15;;
74799;SDS011;63326;45.088;7.658;2024-03-29T11:28:23;5.03;;;2.40;;
74799;SDS011;63326;45.088;7.658;2024-03-29T11:30:49;5.65;;;2.65;;
74799;SDS011;63326;45.088;7.658;2024-03-29T11:33:27;5.15;;;3.17;;
74799;SDS011;63326;45.088;7.658;2024-03-29T11:36:12;4.43;;;2.67;;
74799;SDS011;63326;45.088;7.658;2024-03-29T11:38:57;5.90;;;2.75;;
74799;SDS011;63326;45.088;7.658;2024-03-29T11:41:24;4.55;;;1.95;;
74799;SDS011;63326;45.088;7.658;2024-03-29T11:43:57;5.47;;;3.08;;
74799;SDS011;63326;45.088;7.658;2024-03-29T11:46:24;6.22;;;3.53;;
74799;SDS011;63326;45.088;7.658;2024-03-29T11:48:50;6.03;;;3.30;;
74799;SDS011;63326;45.088;7.658;2024-03-29T11:51:20;5.30;;;2.50;;
74799;SDS011;63326;45.088;7.658;2024-03-29T11:53:47;4.30;;;2.35;;
74799;SDS011;63326;45.088;7.658;2024-03-29T11:56:19;5.75;;;2.42;;
74799;SDS011;63326;45.088;7.658;2024-03-29T11:58:45;3.45;;;2.08;;
74799;SDS011;63326;45.088;7.658;2024-03-29T12:01:15;3.38;;;2.05;;
74799;SDS011;63326;45.088;7.658;2024-03-29T12:03:42;5.72;;;2.50;;
74799;SDS011;63326;45.088;7.658;2024-03-29T12:06:13;4.20;;;2.38;;
74799;SDS011;63326;45.088;7.658;2024-03-29T12:08:40;5.43;;;2.42;;
74799;SDS011;63326;45.088;7.658;2024-03-29T12:11:08;3.88;;;2.35;;
74799;SDS011;63326;45.088;7.658;2024-03-29T12:13:34;4.30;;;2.60;;
74799;SDS011;63326;45.088;7.658;2024-03-29T12:16:00;4.07;;;2.88;;
74799;SDS011;63326;45.088;7.658;2024-03-29T12:18:27;6.30;;;3.00;;
74799;SDS011;63326;45.088;7.658;2024-03-29T12:20:55;4.10;;;2.05;;
74799;SDS011;63326;45.088;7.658;2024-03-29T12:23:21;4.68;;;2.22;;
74799;SDS011;63326;45.088;7.658;2024-03-29T12:25:48;5.13;;;2.33;;
74799;SDS011;63326;45.088;7.658;2024-03-29T12:28:16;11.75;;;2.92;;
74799;SDS011;63326;45.088;7.658;2024-03-29T12:30:44;5.50;;;2.75;;
74799;SDS011;63326;45.088;7.658;2024-03-29T12:33:12;5.03;;;2.40;;
74799;SDS011;63326;45.088;7.658;2024-03-29T12:35:42;5.13;;;2.90;;
74799;SDS011;63326;45.088;7.658;2024-03-29T12:38:11;3.88;;;1.95;;
74799;SDS011;63326;45.088;7.658;2024-03-29T12:40:40;4.30;;;2.30;;
74799;SDS011;63326;45.088;7.658;2024-03-29T12:43:08;5.97;;;2.60;;
74799;SDS011;63326;45.088;7.658;2024-03-29T12:45:35;4.57;;;2.20;;
74799;SDS011;63326;45.088;7.658;2024-03-29T12:48:14;5.30;;;2.70;;
74799;SDS011;63326;45.088;7.658;2024-03-29T12:50:43;3.17;;;1.60;;
74799;SDS011;63326;45.088;7.658;2024-03-29T12:53:12;4.47;;;2.17;;
74799;SDS011;63326;45.088;7.658;2024-03-29T12:55:40;4.45;;;2.10;;
74799;SDS011;63326;45.088;7.658;2024-03-29T12:58:11;4.32;;;2.00;;
74799;SDS011;63326;45.088;7.658;2024-03-29T13:00:42;3.20;;;1.38;;
74799;SDS011;63326;45.088;7.658;2024-03-29T13:03:09;4.10;;;1.92;;
74799;SDS011;63326;45.088;7.658;2024-03-29T13:05:37;3.67;;;1.60;;
74799;SDS011;63326;45.088;7.658;2024-03-29T13:08:09;3.30;;;1.75;;
74799;SDS011;63326;45.088;7.658;2024-03-29T13:10:39;4.10;;;2.10;;
74799;SDS011;63326;45.088;7.658;2024-03-29T13:13:09;3.25;;;1.90;;
74799;SDS011;63326;45.088;7.658;2024-03-29T13:15:53;5.70;;;1.80;;
74799;SDS011;63326;45.088;7.658;2024-03-29T13:18:19;3.67;;;1.75;;
74799;SDS011;63326;45.088;7.658;2024-03-29T13:20:46;3.50;;;1.88;;
74799;SDS011;63326;45.088;7.658;2024-03-29T13:23:11;4.88;;;2.38;;
74799;SDS011;63326;45.088;7.658;2024-03-29T13:25:38;4.05;;;2.00;;
74799;SDS011;63326;45.088;7.658;2024-03-29T13:28:07;3.40;;;1.90;;
74799;SDS011;63326;45.088;7.658;2024-03-29T13:30:34;4.50;;;2.25;;
74799;SDS011;63326;45.088;7.658;2024-03-29T13:33:04;4.00;;;2.10;;
74799;SDS011;63326;45.088;7.658;2024-03-29T13:35:31;4.78;;;2.15;;
74799;SDS011;63326;45.088;7.658;2024-03-29T13:38:00;4.07;;;1.98;;
74799;SDS011;63326;45.088;7.658;2024-03-29T13:40:27;3.80;;;1.65;;
74799;SDS011;63326;45.088;7.658;2024-03-29T13:42:54;4.00;;;2.45;;
74799;SDS011;63326;45.088;7.658;2024-03-29T13:45:20;5.10;;;2.58;;
74799;SDS011;63326;45.088;7.658;2024-03-29T13:47:46;4.82;;;1.75;;
74799;SDS011;63326;45.088;7.658;2024-03-29T13:50:12;3.53;;;1.88;;
74799;SDS011;63326;45.088;7.658;2024-03-29T13:52:43;3.70;;;1.75;;
74799;SDS011;63326;45.088;7.658;2024-03-29T13:55:09;5.60;;;1.83;;
74799;SDS011;63326;45.088;7.658;2024-03-29T13:57:36;3.80;;;2.10;;
74799;SDS011;63326;45.088;7.658;2024-03-29T14:00:03;5.13;;;2.20;;
74799;SDS011;63326;45.088;7.658;2024-03-29T14:02:31;5.47;;;3.30;;
74799;SDS011;63326;45.088;7.658;2024-03-29T14:04:58;4.47;;;2.10;;
74799;SDS011;63326;45.088;7.658;2024-03-29T14:07:26;4.13;;;1.95;;
74799;SDS011;63326;45.088;7.658;2024-03-29T14:09:51;9.15;;;2.58;;
74799;SDS011;63326;45.088;7.658;2024-03-29T14:12:18;7.07;;;3.55;;
74799;SDS011;63326;45.088;7.658;2024-03-29T14:14:47;7.00;;;3.35;;
74799;SDS011;63326;45.088;7.658;2024-03-29T16:07:39;18.10;;;7.70;;
74799;SDS011;63326;45.088;7.658;2024-03-29T16:10:05;19.20;;;8.32;;
74799;SDS011;63326;45.088;7.658;2024-03-29T16:12:32;14.85;;;7.65;;
74799;SDS011;63326;45.088;7.658;2024-03-29T16:14:58;12.80;;;6.50;;
74799;SDS011;63326;45.088;7.658;2024-03-29T16:17:24;19.10;;;7.65;;
74799;SDS011;63326;45.088;7.658;2024-03-29T16:19:50;15.13;;;6.55;;
74799;SDS011;63326;45.088;7.658;2024-03-29T16:22:16;13.48;;;7.63;;
74799;SDS011;63326;45.088;7.658;2024-03-29T16:24:44;18.05;;;7.22;;
74799;SDS011;63326;45.088;7.658;2024-03-29T16:27:11;20.33;;;9.68;;
74799;SDS011;63326;45.088;7.658;2024-03-29T16:29:40;17.63;;;8.02;;
74799;SDS011;63326;45.088;7.658;2024-03-29T16:32:07;13.77;;;6.82;;
74799;SDS011;63326;45.088;7.658;2024-03-29T16:34:35;11.45;;;6.32;;
74799;SDS011;63326;45.088;7.658;2024-03-29T16:37:01;9.30;;;5.90;;
74799;SDS011;63326;45.088;7.658;2024-03-29T16:39:31;12.90;;;6.15;;
74799;SDS011;63326;45.088;7.658;2024-03-29T16:41:59;16.77;;;8.07;;
74799;SDS011;63326;45.088;7.658;2024-03-29T16:44:25;16.90;;;7.72;;